createdAt,value
2022-08-14T00:01:50.273Z,19.03
2022-08-14T00:06:59.892Z,19.06
2022-08-14T00:12:05.512Z,18.94
2022-08-14T00:17:29.625Z,18.78
2022-08-14T00:22:56.303Z,18.63
2022-08-14T00:28:00.466Z,18.48
2022-08-14T00:33:16.072Z,18.38
2022-08-14T00:38:22.435Z,18.36
2022-08-14T00:43:32.176Z,18.26
2022-08-14T00:48:40.993Z,18.17
2022-08-14T00:53:47.606Z,18.05
2022-08-14T00:58:54.971Z,17.96
2022-08-14T01:04:05.731Z,17.93
2022-08-14T01:09:11.757Z,17.94
2022-08-14T01:14:28.237Z,17.88
2022-08-14T01:19:53.849Z,17.74
2022-08-14T01:24:59.567Z,17.74
2022-08-14T01:30:06.867Z,17.70
2022-08-14T01:35:17.493Z,17.68
2022-08-14T01:40:33.225Z,17.59
2022-08-14T01:45:41.820Z,17.49
2022-08-14T01:50:46.626Z,17.30
2022-08-14T01:55:57.573Z,17.19
2022-08-14T02:01:02.940Z,17.10
2022-08-14T02:06:33.343Z,17.03
2022-08-14T02:11:35.198Z,16.98
2022-08-14T02:16:42.802Z,16.94
2022-08-14T02:21:51.119Z,16.93
2022-08-14T02:28:23.645Z,16.83
2022-08-14T02:32:36.179Z,16.70
2022-08-14T02:37:50.239Z,16.58
2022-08-14T02:42:57.748Z,16.52
2022-08-14T02:48:02.717Z,16.45
2022-08-14T02:53:07.555Z,16.42
2022-08-14T02:58:21.408Z,16.32
2022-08-14T03:03:35.463Z,16.17
2022-08-14T03:08:46.071Z,16.05
2022-08-14T03:13:54.172Z,16.03
2022-08-14T03:19:00.233Z,16.03
2022-08-14T03:24:21.284Z,16.03
2022-08-14T03:29:29.517Z,15.96
2022-08-14T03:34:52.582Z,16.07
2022-08-14T03:39:58.718Z,16.08
2022-08-14T03:45:25.102Z,15.98
2022-08-14T03:50:34.595Z,15.87
2022-08-14T03:55:39.275Z,15.90
2022-08-14T04:00:46.134Z,15.97
2022-08-14T04:05:50.536Z,15.97
2022-08-14T04:10:56.401Z,15.95
2022-08-14T04:16:05.045Z,15.85
2022-08-14T04:21:10.142Z,15.74
2022-08-14T04:26:27.475Z,15.66
2022-08-14T04:32:58.174Z,15.53
2022-08-14T04:37:32.895Z,15.49
2022-08-14T04:42:54.990Z,15.54
2022-08-14T04:48:39.086Z,15.61
2022-08-14T04:53:43.921Z,15.75
2022-08-14T04:58:49.871Z,15.82
2022-08-14T05:03:59.226Z,15.92
2022-08-14T05:09:04.569Z,16.04
2022-08-14T05:14:34.642Z,16.15
2022-08-14T05:19:44.256Z,16.30
2022-08-14T05:24:51.355Z,16.48
2022-08-14T05:29:57.380Z,16.63
2022-08-14T05:35:03.325Z,16.94
2022-08-14T05:40:10.142Z,17.26
2022-08-14T05:45:17.204Z,17.45
2022-08-14T05:50:23.115Z,17.65
2022-08-14T05:55:27.379Z,17.90
2022-08-14T06:00:37.161Z,18.22
2022-08-14T06:05:46.798Z,18.47
2022-08-14T06:11:03.066Z,18.72
2022-08-14T06:16:08.377Z,19.00
2022-08-14T06:21:15.765Z,19.33
2022-08-14T06:26:22.432Z,19.70
2022-08-14T06:31:26.785Z,20.23
2022-08-14T06:36:32.542Z,20.68
2022-08-14T06:41:58.217Z,21.26
2022-08-14T06:47:02.680Z,21.91
2022-08-14T06:52:08.813Z,22.78
2022-08-14T06:57:13.338Z,23.62
2022-08-14T07:02:36.158Z,23.34
2022-08-14T07:07:43.507Z,22.61
2022-08-14T07:13:02.164Z,22.68
2022-08-14T07:18:10.531Z,24.06
2022-08-14T07:23:20.990Z,25.52
2022-08-14T07:28:29.589Z,26.50
2022-08-14T07:33:42.053Z,26.99
2022-08-14T07:38:52.393Z,28.27
2022-08-14T07:43:57.739Z,28.69
2022-08-14T07:49:02.148Z,29.83
2022-08-14T07:54:11.366Z,30.47
2022-08-14T07:59:18.172Z,30.51
2022-08-14T08:04:27.488Z,31.24
2022-08-14T08:09:36.134Z,31.48
2022-08-14T08:14:55.452Z,31.52
2022-08-14T08:20:01.513Z,32.28
2022-08-14T08:25:11.444Z,32.37
2022-08-14T08:30:19.458Z,33.05
2022-08-14T08:35:46.398Z,32.73
2022-08-14T08:40:56.506Z,33.01
2022-08-14T08:46:08.978Z,33.94
2022-08-14T08:51:34.703Z,33.70
2022-08-14T08:56:43.703Z,33.86
2022-08-14T09:01:56.238Z,34.60
2022-08-14T09:07:10.162Z,34.90
2022-08-14T09:12:17.221Z,35.57
2022-08-14T09:17:25.978Z,36.38
2022-08-14T09:22:34.970Z,36.65
2022-08-14T09:27:42.386Z,37.79
2022-08-14T09:33:10.804Z,38.91
2022-08-14T09:38:29.439Z,39.41
2022-08-14T09:43:53.444Z,39.50
2022-08-14T09:49:02.957Z,40.00
2022-08-14T09:54:23.029Z,40.16
2022-08-14T09:59:40.562Z,40.53
2022-08-14T10:04:46.255Z,39.95
2022-08-14T10:10:00.011Z,39.85
2022-08-14T10:15:21.922Z,39.67
2022-08-14T10:20:40.451Z,40.96
2022-08-14T10:25:50.509Z,40.49
2022-08-14T10:30:56.224Z,40.86
2022-08-14T10:36:02.820Z,41.67
2022-08-14T10:41:13.630Z,41.41
2022-08-14T10:47:37.357Z,41.41
2022-08-14T10:52:05.882Z,38.86
2022-08-14T10:57:17.193Z,37.54
2022-08-14T11:02:45.017Z,37.07
2022-08-14T11:08:01.991Z,37.54
2022-08-14T11:13:21.301Z,37.49
2022-08-14T11:18:36.825Z,37.31
2022-08-14T11:23:53.771Z,37.83
2022-08-14T11:29:05.713Z,37.21
2022-08-14T11:34:32.083Z,36.21
2022-08-14T11:39:38.534Z,36.08
2022-08-14T11:44:46.055Z,35.44
2022-08-14T11:49:53.300Z,34.87
2022-08-14T11:55:01.342Z,34.71
2022-08-14T12:00:10.059Z,34.92
2022-08-14T12:05:31.848Z,34.94
2022-08-14T12:10:42.731Z,34.53
2022-08-14T12:15:58.661Z,32.99
2022-08-14T12:21:19.452Z,31.77
2022-08-14T12:26:39.357Z,32.00
2022-08-14T12:31:47.308Z,32.38
2022-08-14T12:37:06.174Z,31.96
2022-08-14T12:42:11.624Z,31.81
2022-08-14T12:47:31.719Z,31.23
2022-08-14T12:52:45.247Z,30.89
2022-08-14T12:58:29.204Z,30.33
2022-08-14T13:03:32.741Z,30.09
2022-08-14T13:08:46.070Z,30.04
2022-08-14T13:14:01.169Z,30.47
2022-08-14T13:19:05.971Z,30.77
2022-08-14T13:24:19.766Z,31.53
2022-08-14T13:29:28.171Z,30.94
2022-08-14T13:34:34.169Z,31.02
2022-08-14T13:39:40.354Z,31.11
2022-08-14T13:44:50.342Z,31.86
2022-08-14T13:49:57.106Z,31.74
2022-08-14T13:55:07.547Z,31.12
2022-08-14T14:00:15.455Z,31.09
2022-08-14T14:05:23.235Z,30.47
2022-08-14T14:10:29.371Z,30.05
2022-08-14T14:15:48.712Z,29.97
2022-08-14T14:21:03.354Z,30.12
2022-08-14T14:26:13.785Z,30.21
2022-08-14T14:31:23.902Z,30.14
2022-08-14T14:36:34.938Z,29.85
2022-08-14T14:41:44.016Z,29.71
2022-08-14T14:46:50.543Z,29.71
2022-08-14T14:51:55.929Z,28.84
2022-08-14T14:57:03.495Z,27.80
2022-08-14T15:02:09.687Z,27.48
2022-08-14T15:07:16.349Z,27.48
2022-08-14T15:12:56.653Z,27.58
2022-08-14T15:17:47.657Z,27.36
2022-08-14T15:23:47.452Z,27.17
2022-08-14T15:29:29.671Z,27.16
2022-08-14T15:35:29.616Z,27.06
2022-08-14T15:41:08.429Z,26.96
2022-08-14T15:46:41.286Z,26.80
2022-08-14T15:51:42.072Z,26.59
2022-08-14T15:58:01.382Z,26.29
2022-08-14T16:04:34.686Z,26.16
2022-08-14T16:11:01.199Z,26.09
2022-08-14T16:17:16.940Z,25.84
2022-08-14T16:23:13.872Z,25.74
2022-08-14T16:35:01.560Z,25.75
2022-08-14T16:41:52.569Z,25.55
2022-08-14T16:48:57.089Z,25.42
2022-08-14T16:55:50.965Z,25.39
2022-08-14T17:07:17.607Z,25.30
2022-08-14T17:14:00.554Z,25.22
2022-08-14T17:26:45.994Z,25.08
2022-08-14T17:32:28.192Z,25.11
2022-08-14T17:37:56.039Z,25.11
2022-08-14T17:43:02.816Z,25.07
2022-08-14T17:49:14.195Z,24.91
2022-08-14T17:53:53.600Z,24.69
2022-08-14T17:59:07.469Z,24.50
2022-08-14T18:04:28.302Z,24.33
2022-08-14T18:09:56.723Z,24.29
2022-08-14T18:15:15.868Z,24.16
2022-08-14T18:21:24.623Z,24.07
2022-08-14T18:25:57.217Z,23.84
2022-08-14T18:31:42.141Z,23.72
2022-08-14T18:36:55.475Z,23.62
2022-08-14T18:42:45.346Z,23.48
2022-08-14T18:48:16.172Z,23.35
2022-08-14T18:53:24.635Z,23.31
2022-08-14T18:58:47.490Z,23.26
2022-08-14T19:03:54.564Z,23.21
2022-08-14T19:09:00.977Z,23.21
2022-08-14T19:14:08.026Z,23.16
2022-08-14T19:19:15.700Z,23.11
2022-08-14T19:24:44.050Z,23.08
2022-08-14T19:29:51.805Z,23.04
2022-08-14T19:34:59.913Z,23.00
2022-08-14T19:40:15.648Z,22.96
2022-08-14T19:45:30.135Z,22.54
2022-08-14T19:50:41.193Z,22.35
2022-08-14T19:55:58.498Z,22.58
2022-08-14T20:01:08.520Z,22.72
2022-08-14T20:06:14.035Z,22.75
2022-08-14T20:11:43.019Z,22.75
2022-08-14T20:16:55.714Z,22.84
2022-08-14T20:22:35.068Z,22.75
2022-08-14T20:27:45.888Z,22.68
2022-08-14T20:32:55.033Z,22.53
2022-08-14T20:38:30.909Z,22.31
2022-08-14T20:43:53.056Z,22.15
2022-08-14T20:49:02.434Z,22.03
2022-08-14T20:54:14.162Z,21.89
2022-08-14T20:59:21.912Z,21.84
2022-08-14T21:04:32.740Z,21.77
2022-08-14T21:10:06.373Z,21.74
2022-08-14T21:15:20.216Z,21.70
2022-08-14T21:20:28.944Z,21.70
2022-08-14T21:25:35.602Z,21.70
2022-08-14T21:30:51.512Z,21.70
2022-08-14T21:36:07.925Z,21.71
2022-08-14T21:41:42.711Z,21.59
2022-08-14T21:46:53.571Z,21.52
2022-08-14T21:52:50.495Z,21.83
2022-08-14T21:57:55.828Z,21.91
2022-08-14T22:02:55.497Z,21.69
2022-08-14T22:08:07.439Z,21.60
2022-08-14T22:13:18.178Z,19.97
2022-08-14T22:18:23.190Z,17.59
2022-08-14T22:23:31.344Z,16.90
2022-08-14T22:28:35.886Z,16.71
2022-08-14T22:33:43.036Z,16.69
2022-08-14T22:38:49.910Z,16.71
2022-08-14T22:44:01.808Z,16.57
2022-08-14T22:49:16.216Z,16.60
2022-08-14T22:54:52.023Z,16.68
2022-08-14T22:59:58.101Z,16.55
2022-08-14T23:05:04.717Z,16.52
2022-08-14T23:10:31.902Z,16.60
2022-08-14T23:15:38.244Z,16.54
2022-08-14T23:20:47.565Z,16.62
2022-08-14T23:26:00.555Z,16.71
2022-08-14T23:31:34.932Z,16.63
2022-08-14T23:36:53.427Z,16.57
2022-08-14T23:42:04.615Z,16.50
2022-08-14T23:47:26.335Z,16.54
2022-08-14T23:53:06.330Z,16.54
2022-08-14T23:58:03.170Z,16.48
